Time;durP1;ratioP1;P1;durP2;ratioP2;P2;SDS_P1;SDS_P2;PMS_P1;PMS_P2;Temp;Humidity;BMP_temperature;BMP_pressure;BME280_temperature;BME280_humidity;BME280_pressure;Samples;Min_cycle;Max_cycle;Signal;HPM_P1;HPM_P2
2021/04/07 00:00:19;;;;;;;3.03;2.83;;;0.60;99.90;;;;;;5074052;28;20538;-54
2021/04/07 00:02:44;;;;;;;4.80;2.77;;;0.50;99.90;;;;;;5072122;28;20491;-50
2021/04/07 00:05:16;;;;;;;3.20;2.63;;;0.40;99.90;;;;;;5072086;28;20488;-52
2021/04/07 00:07:44;;;;;;;3.50;2.93;;;0.50;99.90;;;;;;5071578;28;20174;-53
2021/04/07 00:10:14;;;;;;;3.97;3.10;;;0.40;99.90;;;;;;5073635;28;20752;-46
2021/04/07 00:12:41;;;;;;;3.53;3.00;;;0.40;99.90;;;;;;5073311;28;20448;-56
2021/04/07 00:15:33;;;;;;;3.60;3.30;;;0.50;99.90;;;;;;5073335;28;20393;-45
2021/04/07 00:18:00;;;;;;;3.53;3.00;;;0.40;99.90;;;;;;5071214;28;20820;-54
2021/04/07 00:20:26;;;;;;;3.40;2.83;;;0.40;99.90;;;;;;5073439;28;20765;-53
2021/04/07 00:22:53;;;;;;;3.83;3.10;;;0.50;99.90;;;;;;5072920;28;20440;-51
2021/04/07 00:25:20;;;;;;;3.53;3.17;;;0.50;99.90;;;;;;5075103;28;20412;-54
2021/04/07 00:27:53;;;;;;;4.60;3.30;;;0.60;99.90;;;;;;5077265;28;20429;-47
2021/04/07 00:30:22;;;;;;;4.47;4.03;;;0.50;99.90;;;;;;5077304;28;20401;-46
2021/04/07 00:32:47;;;;;;;4.30;3.90;;;0.50;99.90;;;;;;5076889;28;20896;-45
2021/04/07 00:35:13;;;;;;;5.50;4.13;;;0.40;99.90;;;;;;5077282;28;20466;-46
2021/04/07 00:37:39;;;;;;;4.20;3.80;;;0.40;99.90;;;;;;5076636;28;20194;-45
2021/04/07 00:40:06;;;;;;;4.40;4.00;;;0.40;99.90;;;;;;5077211;28;20405;-56
2021/04/07 00:42:33;;;;;;;4.30;3.90;;;0.50;99.90;;;;;;5076559;28;20174;-48
2021/04/07 00:44:59;;;;;;;5.50;4.00;;;0.60;99.90;;;;;;5076795;28;20439;-46
2021/04/07 00:47:24;;;;;;;5.43;4.67;;;0.60;99.90;;;;;;5076769;28;20432;-57
2021/04/07 00:49:50;;;;;;;4.80;4.20;;;0.50;99.90;;;;;;5076544;28;20178;-53
2021/04/07 00:52:15;;;;;;;5.23;4.60;;;0.50;99.90;;;;;;5076392;28;20206;-47
2021/04/07 00:54:41;;;;;;;6.80;5.23;;;0.40;99.90;;;;;;5076473;28;20182;-55
2021/04/07 00:57:07;;;;;;;6.10;5.50;;;0.40;99.90;;;;;;5076736;28;20235;-45
2021/04/07 00:59:33;;;;;;;7.43;6.63;;;0.40;99.90;;;;;;5076527;28;20507;-51
2021/04/07 01:02:00;;;;;;;6.90;6.20;;;0.40;99.90;;;;;;5076463;28;20185;-46
2021/04/07 01:04:25;;;;;;;6.87;5.77;;;0.40;99.90;;;;;;5076559;28;20213;-54
2021/04/07 01:06:52;;;;;;;7.90;6.40;;;0.40;99.90;;;;;;5076326;28;20428;-52
2021/04/07 01:09:18;;;;;;;8.63;7.73;;;0.40;99.90;;;;;;5076816;28;20251;-46
2021/04/07 01:11:44;;;;;;;8.47;7.57;;;0.40;99.90;;;;;;5076157;28;20405;-52
2021/04/07 01:14:09;;;;;;;9.00;7.63;;;0.30;99.90;;;;;;5076537;28;20235;-51
2021/04/07 01:16:36;;;;;;;7.70;6.90;;;0.40;99.90;;;;;;5076828;28;20202;-54
2021/04/07 01:19:02;;;;;;;7.63;6.83;;;0.40;99.90;;;;;;5076340;28;20171;-56
2021/04/07 01:21:27;;;;;;;7.33;6.53;;;0.50;99.90;;;;;;5075991;28;20508;-47
2021/04/07 01:23:53;;;;;;;7.00;6.23;;;0.50;99.90;;;;;;5076040;28;20202;-45
2021/04/07 01:26:18;;;;;;;7.37;6.50;;;0.50;99.90;;;;;;5075835;28;20195;-46
2021/04/07 01:28:44;;;;;;;6.43;5.83;;;0.50;99.90;;;;;;5075341;28;20614;-52
2021/04/07 01:31:10;;;;;;;7.03;6.33;;;0.50;99.90;;;;;;5075379;28;20592;-48
2021/04/07 01:33:37;;;;;;;7.60;5.97;;;0.60;99.90;;;;;;5074340;28;20182;-46
2021/04/07 01:36:03;;;;;;;6.40;5.80;;;0.60;99.90;;;;;;5075056;28;20448;-57
2021/04/07 01:38:29;;;;;;;6.60;5.60;;;0.60;99.90;;;;;;5075815;28;20892;-51
2021/04/07 01:40:55;;;;;;;6.50;5.83;;;0.60;99.90;;;;;;5075537;28;20473;-45
2021/04/07 01:43:22;;;;;;;6.60;5.97;;;0.60;99.90;;;;;;5075447;28;20677;-56
2021/04/07 01:45:49;;;;;;;6.90;6.03;;;0.50;99.90;;;;;;5075479;28;20437;-51
2021/04/07 01:48:17;;;;;;;6.67;5.97;;;0.50;99.90;;;;;;5075854;28;20412;-47
2021/04/07 01:50:45;;;;;;;7.40;5.20;;;0.50;99.90;;;;;;5075487;28;20413;-45
2021/04/07 01:53:11;;;;;;;7.07;5.90;;;0.40;99.90;;;;;;5075452;28;20523;-53
2021/04/07 01:55:37;;;;;;;6.03;5.43;;;0.30;99.90;;;;;;5075440;28;20447;-46
2021/04/07 01:58:03;;;;;;;5.80;5.20;;;0.30;99.90;;;;;;5076190;28;20735;-47
2021/04/07 02:00:29;;;;;;;6.87;5.63;;;0.20;99.90;;;;;;5075493;28;20186;-51
2021/04/07 02:02:55;;;;;;;7.83;6.50;;;0.30;99.90;;;;;;5074872;28;20456;-45
2021/04/07 02:05:21;;;;;;;7.77;5.57;;;0.30;99.90;;;;;;5075357;28;20194;-45
2021/04/07 02:07:46;;;;;;;6.50;5.30;;;0.30;99.90;;;;;;5075509;28;20255;-56
2021/04/07 02:10:12;;;;;;;7.13;5.63;;;0.20;99.90;;;;;;5075732;28;20444;-49
2021/04/07 02:12:37;;;;;;;7.17;6.03;;;0.30;99.90;;;;;;5074973;28;20166;-53
2021/04/07 02:15:16;;;;;;;7.50;6.00;;;0.30;99.90;;;;;;5075347;28;20261;-52
2021/04/07 02:17:41;;;;;;;8.20;5.83;;;0.30;99.90;;;;;;5075177;28;20184;-45
2021/04/07 02:20:09;;;;;;;7.37;5.60;;;0.30;99.90;;;;;;5075177;28;20785;-55
2021/04/07 02:22:34;;;;;;;6.97;6.27;;;0.30;99.90;;;;;;5074602;28;20249;-45
2021/04/07 02:25:00;;;;;;;7.13;5.93;;;0.30;99.90;;;;;;5075194;28;20615;-57
2021/04/07 02:27:26;;;;;;;6.20;5.60;;;0.30;99.90;;;;;;5074899;28;20181;-46
2021/04/07 02:29:55;;;;;;;6.87;5.57;;;0.20;99.90;;;;;;5074888;28;20508;-46
2021/04/07 02:32:22;;;;;;;7.07;5.90;;;0.20;99.90;;;;;;5074713;28;20424;-45
2021/04/07 02:34:48;;;;;;;6.50;5.70;;;0.20;99.90;;;;;;5074455;28;20916;-51
2021/04/07 02:37:15;;;;;;;6.07;5.20;;;0.10;99.90;;;;;;5074314;28;20455;-45
2021/04/07 02:39:42;;;;;;;5.57;5.00;;;0.10;99.90;;;;;;5074809;28;20417;-51
2021/04/07 02:42:08;;;;;;;7.77;5.90;;;0.00;99.90;;;;;;5074731;28;20421;-54
2021/04/07 02:44:34;;;;;;;7.80;5.80;;;0.00;99.90;;;;;;5074479;28;20463;-55
2021/04/07 02:47:00;;;;;;;8.03;5.67;;;-0.10;99.90;;;;;;5074999;28;20205;-50
2021/04/07 02:49:25;;;;;;;6.03;5.43;;;-0.10;99.90;;;;;;5074335;28;20495;-46
2021/04/07 02:51:52;;;;;;;6.73;5.43;;;0.00;99.90;;;;;;5074614;28;20166;-47
2021/04/07 02:54:18;;;;;;;6.47;5.37;;;0.00;99.90;;;;;;5074426;28;20182;-53
2021/04/07 02:56:43;;;;;;;6.23;5.43;;;0.00;99.90;;;;;;5074356;28;20486;-44
2021/04/07 02:59:09;;;;;;;8.20;5.67;;;0.00;99.90;;;;;;5074434;28;20413;-52
2021/04/07 03:01:35;;;;;;;9.77;5.73;;;0.00;99.90;;;;;;5074134;28;20182;-55
2021/04/07 03:04:00;;;;;;;8.57;5.83;;;0.00;99.90;;;;;;5073972;28;20236;-46
2021/04/07 03:06:26;;;;;;;6.90;5.80;;;0.10;99.90;;;;;;5073860;28;20198;-53
2021/04/07 03:08:52;;;;;;;7.77;6.10;;;0.20;99.90;;;;;;5074087;28;20265;-46
2021/04/07 03:11:18;;;;;;;6.07;5.47;;;0.20;99.90;;;;;;5074078;28;20684;-49
2021/04/07 03:13:43;;;;;;;7.77;5.63;;;0.30;99.90;;;;;;5073527;28;20171;-46
2021/04/07 03:16:09;;;;;;;7.10;5.43;;;0.40;99.90;;;;;;5074179;28;20432;-53
2021/04/07 03:18:35;;;;;;;9.50;5.60;;;0.40;99.90;;;;;;5074040;28;20190;-57
2021/04/07 03:21:01;;;;;;;7.73;6.17;;;0.40;99.90;;;;;;5073720;28;20473;-51
2021/04/07 03:23:27;;;;;;;7.73;5.47;;;0.40;99.90;;;;;;5074196;28;20214;-51
2021/04/07 03:25:52;;;;;;;10.60;6.07;;;0.40;99.90;;;;;;5073849;28;20496;-54
2021/04/07 03:28:18;;;;;;;7.77;6.10;;;0.40;99.90;;;;;;5073942;28;20261;-45
2021/04/07 03:30:50;;;;;;;6.80;5.77;;;0.40;99.90;;;;;;5074016;28;20253;-47
2021/04/07 03:33:21;;;;;;;7.13;5.67;;;0.30;99.90;;;;;;5073636;28;20186;-55
2021/04/07 03:35:48;;;;;;;7.60;6.20;;;0.30;99.90;;;;;;5073165;28;20800;-45
2021/04/07 03:38:14;;;;;;;7.00;5.67;;;0.40;99.90;;;;;;5074293;28;20405;-47
2021/04/07 03:40:40;;;;;;;7.93;6.07;;;0.40;99.90;;;;;;5074075;28;20405;-46
2021/04/07 03:43:10;;;;;;;9.10;6.47;;;0.40;99.90;;;;;;5073314;28;20194;-46
2021/04/07 03:45:37;;;;;;;8.20;7.00;;;0.30;99.90;;;;;;5073391;28;20424;-47
2021/04/07 03:48:04;;;;;;;8.00;7.13;;;0.10;99.90;;;;;;5073756;28;20405;-46
2021/04/07 03:50:30;;;;;;;8.87;7.23;;;0.00;99.90;;;;;;5073507;28;20437;-56
2021/04/07 03:52:55;;;;;;;7.93;6.90;;;-0.10;99.90;;;;;;5073430;28;20436;-52
2021/04/07 03:55:21;;;;;;;11.23;8.17;;;-0.10;99.90;;;;;;5073662;28;20202;-52
2021/04/07 03:57:46;;;;;;;9.43;8.30;;;-0.10;99.90;;;;;;5073645;28;20236;-46
2021/04/07 04:00:13;;;;;;;9.17;8.03;;;-0.20;99.90;;;;;;5076955;28;20185;-45
2021/04/07 04:02:38;;;;;;;12.13;8.80;;;-0.10;99.90;;;;;;5078939;28;20650;-52
2021/04/07 04:05:05;;;;;;;11.27;9.20;;;-0.10;99.90;;;;;;5079757;28;20424;-53
2021/04/07 04:07:30;;;;;;;8.93;7.87;;;0.00;99.90;;;;;;5080269;28;20177;-48
2021/04/07 04:09:56;;;;;;;9.10;8.20;;;0.00;99.90;;;;;;5080349;28;20412;-51
2021/04/07 04:12:21;;;;;;;9.13;7.73;;;0.00;99.90;;;;;;5080255;28;20515;-50
2021/04/07 04:14:47;;;;;;;9.97;8.97;;;0.00;99.90;;;;;;5080115;28;20541;-45
2021/04/07 04:17:12;;;;;;;8.43;7.53;;;0.00;99.90;;;;;;5079681;28;20558;-50
2021/04/07 04:19:38;;;;;;;9.83;7.57;;;0.00;99.90;;;;;;5079687;28;20534;-51
2021/04/07 04:22:04;;;;;;;9.23;7.70;;;0.00;99.90;;;;;;5079900;28;20185;-46
2021/04/07 04:24:30;;;;;;;9.63;7.93;;;0.00;99.90;;;;;;5080112;28;20292;-52
2021/04/07 04:26:57;;;;;;;9.50;8.50;;;-0.10;99.90;;;;;;5079774;28;20462;-45
2021/04/07 04:29:22;;;;;;;9.00;7.77;;;0.00;99.90;;;;;;5080186;28;20487;-51
2021/04/07 04:31:48;;;;;;;9.70;8.30;;;0.00;99.90;;;;;;5080153;28;20444;-45
2021/04/07 04:34:13;;;;;;;8.80;7.53;;;0.00;99.90;;;;;;5079313;28;20231;-46
2021/04/07 04:36:39;;;;;;;8.53;7.63;;;0.10;99.90;;;;;;5079398;28;20206;-47
2021/04/07 04:39:05;;;;;;;8.37;6.23;;;0.20;99.90;;;;;;5080165;28;20248;-49
2021/04/07 04:41:30;;;;;;;8.90;6.53;;;0.10;99.90;;;;;;5079670;28;20182;-50
2021/04/07 04:43:56;;;;;;;7.37;5.97;;;0.10;99.90;;;;;;5080455;28;20194;-50
2021/04/07 04:46:22;;;;;;;7.20;5.90;;;0.10;99.90;;;;;;5078949;28;20220;-51
2021/04/07 04:48:48;;;;;;;6.50;5.43;;;0.10;99.90;;;;;;5079253;28;20495;-50
2021/04/07 04:51:13;;;;;;;7.10;5.70;;;0.10;99.90;;;;;;5079533;28;20230;-52
2021/04/07 04:53:38;;;;;;;6.33;5.27;;;0.10;99.90;;;;;;5079431;28;20216;-45
2021/04/07 04:56:05;;;;;;;7.30;5.57;;;0.10;99.90;;;;;;5079829;28;20233;-46
2021/04/07 04:58:31;;;;;;;5.63;4.93;;;0.10;99.90;;;;;;5079793;28;20248;-46
2021/04/07 05:00:57;;;;;;;6.90;5.47;;;0.00;99.90;;;;;;5079787;28;20412;-45
2021/04/07 05:03:23;;;;;;;6.30;5.33;;;0.00;99.90;;;;;;5079140;28;20447;-50
2021/04/07 05:05:48;;;;;;;7.77;5.40;;;0.10;99.90;;;;;;5079182;28;20942;-45
2021/04/07 05:08:14;;;;;;;6.53;5.33;;;0.20;99.90;;;;;;5079552;28;20192;-51
2021/04/07 05:10:40;;;;;;;6.43;4.97;;;0.20;99.90;;;;;;5078612;28;20175;-53
2021/04/07 05:13:05;;;;;;;6.97;5.00;;;0.20;99.90;;;;;;5075289;28;20177;-50
2021/04/07 05:15:31;;;;;;;6.20;4.90;;;0.20;99.90;;;;;;5076138;28;20264;-47
2021/04/07 05:17:56;;;;;;;6.43;4.67;;;0.10;99.90;;;;;;5074912;28;20200;-52
2021/04/07 05:20:22;;;;;;;5.50;4.73;;;0.10;99.90;;;;;;5075854;28;20213;-46
2021/04/07 05:22:47;;;;;;;7.70;4.70;;;0.10;99.90;;;;;;5076122;28;20596;-51
2021/04/07 05:25:13;;;;;;;5.80;4.67;;;0.00;99.90;;;;;;5074810;28;20185;-46
2021/04/07 05:27:39;;;;;;;5.73;4.17;;;0.00;99.90;;;;;;5076342;28;20171;-52
2021/04/07 05:30:05;;;;;;;7.43;4.60;;;0.00;99.90;;;;;;5073985;28;20179;-51
2021/04/07 05:32:31;;;;;;;5.37;4.87;;;0.00;99.90;;;;;;5065438;28;20202;-57
2021/04/07 05:34:56;;;;;;;4.93;4.33;;;0.10;99.90;;;;;;5072555;28;20825;-55
2021/04/07 05:37:22;;;;;;;7.43;4.67;;;0.10;99.90;;;;;;5058743;28;20222;-54
2021/04/07 05:39:47;;;;;;;6.43;4.73;;;0.10;99.90;;;;;;5061746;28;20209;-52
2021/04/07 05:42:13;;;;;;;6.80;4.77;;;0.20;99.90;;;;;;5075598;28;20261;-53
2021/04/07 05:44:38;;;;;;;5.10;4.60;;;0.30;99.90;;;;;;5075690;28;20293;-48
2021/04/07 05:47:04;;;;;;;7.47;5.00;;;0.30;99.90;;;;;;5074422;28;20670;-47
2021/04/07 05:49:29;;;;;;;6.43;5.20;;;0.30;99.90;;;;;;5073390;28;20186;-59
2021/04/07 05:51:55;;;;;;;6.73;5.03;;;0.40;99.90;;;;;;5074370;28;20182;-50
2021/04/07 05:54:20;;;;;;;6.83;5.10;;;0.50;99.90;;;;;;5075633;28;20178;-47
2021/04/07 05:56:46;;;;;;;6.60;5.47;;;0.40;99.90;;;;;;5075623;28;20746;-51
2021/04/07 05:59:12;;;;;;;7.60;5.47;;;0.40;99.90;;;;;;5074983;28;20566;-47
2021/04/07 06:01:37;;;;;;;7.37;5.60;;;0.40;99.90;;;;;;5075722;28;20638;-49
2021/04/07 06:04:03;;;;;;;7.97;5.70;;;0.60;99.90;;;;;;5066643;28;20195;-49
2021/04/07 06:06:29;;;;;;;5.97;5.03;;;0.70;99.90;;;;;;5055403;28;20187;-58
2021/04/07 06:08:55;;;;;;;6.87;5.03;;;0.80;99.90;;;;;;5056329;28;20688;-50
2021/04/07 06:11:21;;;;;;;7.27;5.40;;;0.80;99.90;;;;;;5069011;28;20421;-47
2021/04/07 06:13:47;;;;;;;6.17;5.20;;;0.70;99.90;;;;;;5069399;28;20194;-55
2021/04/07 06:16:14;;;;;;;9.07;6.87;;;0.80;99.90;;;;;;5073427;28;20226;-46
2021/04/07 06:18:40;;;;;;;5.53;5.00;;;0.90;99.90;;;;;;5062710;28;20916;-48
2021/04/07 06:21:05;;;;;;;5.63;5.00;;;0.90;99.90;;;;;;5067822;28;20428;-54
2021/04/07 06:23:31;;;;;;;8.20;5.50;;;1.00;99.90;;;;;;5072759;28;20461;-46
2021/04/07 06:25:56;;;;;;;6.53;5.83;;;1.00;99.90;;;;;;5071982;28;20210;-52
2021/04/07 06:28:22;;;;;;;9.17;5.40;;;1.00;99.90;;;;;;5055585;28;20646;-54
2021/04/07 06:30:48;;;;;;;6.67;5.73;;;1.10;99.90;;;;;;5073250;28;20508;-50
2021/04/07 06:33:25;;;;;;;6.73;5.60;;;1.10;99.90;;;;;;5062991;28;20175;-52
2021/04/07 06:35:52;;;;;;;10.27;8.40;;;1.10;99.90;;;;;;5074508;28;20202;-48
2021/04/07 06:38:19;;;;;;;7.00;5.60;;;1.20;99.90;;;;;;5056970;28;20480;-48
2021/04/07 06:40:45;;;;;;;6.90;5.03;;;1.40;99.90;;;;;;5055667;28;20429;-55
2021/04/07 06:43:12;;;;;;;7.33;6.47;;;1.40;99.90;;;;;;5054424;28;20489;-46
2021/04/07 06:45:39;;;;;;;5.80;4.73;;;1.40;99.90;;;;;;5065297;28;20535;-57
2021/04/07 06:48:07;;;;;;;6.00;5.10;;;1.60;99.90;;;;;;5071217;28;20436;-51
2021/04/07 06:50:33;;;;;;;7.37;5.40;;;1.60;99.90;;;;;;5073686;28;20429;-46
2021/04/07 06:53:00;;;;;;;6.47;4.93;;;1.70;99.90;;;;;;5070899;28;20424;-58
2021/04/07 06:55:26;;;;;;;6.90;5.03;;;1.80;99.90;;;;;;5072655;28;20449;-56
2021/04/07 06:57:54;;;;;;;6.37;4.77;;;1.90;99.90;;;;;;5073988;28;20427;-58
2021/04/07 07:00:20;;;;;;;5.87;4.87;;;2.00;99.90;;;;;;5072617;28;20437;-46
2021/04/07 07:02:46;;;;;;;5.47;4.87;;;2.00;99.90;;;;;;5074630;28;20411;-46
2021/04/07 07:05:12;;;;;;;6.47;4.87;;;2.00;99.90;;;;;;5062381;28;20520;-47
2021/04/07 07:07:38;;;;;;;6.73;4.97;;;2.00;99.90;;;;;;5073438;28;20609;-48
2021/04/07 07:10:04;;;;;;;6.33;5.10;;;1.90;99.90;;;;;;5056967;28;20457;-47
2021/04/07 07:12:31;;;;;;;6.47;5.30;;;1.80;99.90;;;;;;5053874;28;20171;-53
2021/04/07 07:15:03;;;;;;;6.60;5.03;;;1.90;99.90;;;;;;5054458;28;20417;-48
2021/04/07 07:17:30;;;;;;;7.53;5.00;;;2.00;99.90;;;;;;5061142;28;20485;-46
2021/04/07 07:19:56;;;;;;;5.57;4.80;;;1.90;99.90;;;;;;5055980;28;20421;-45
2021/04/07 07:22:24;;;;;;;6.50;5.13;;;1.80;99.90;;;;;;5063418;28;20453;-51
2021/04/07 07:24:55;;;;;;;6.17;5.20;;;1.80;99.90;;;;;;5068484;28;20214;-53
2021/04/07 07:27:35;;;;;;;6.03;5.27;;;1.60;99.90;;;;;;5063481;28;20450;-48
2021/04/07 07:30:00;;;;;;;7.33;5.57;;;1.50;99.90;;;;;;5057559;28;20417;-48
2021/04/07 07:32:37;;;;;;;6.80;5.40;;;1.50;99.90;;;;;;5069384;28;20425;-57
2021/04/07 07:35:16;;;;;;;6.83;5.20;;;1.70;99.90;;;;;;5072708;28;20181;-46
2021/04/07 07:37:43;;;;;;;6.97;5.43;;;1.80;99.90;;;;;;5053601;28;21088;-51
2021/04/07 07:40:18;;;;;;;6.23;5.03;;;1.80;99.90;;;;;;5053799;28;20878;-46
2021/04/07 07:42:45;;;;;;;6.97;5.20;;;1.80;99.90;;;;;;5052136;28;20409;-56
2021/04/07 07:45:12;;;;;;;5.40;4.90;;;1.90;99.90;;;;;;5058769;28;20820;-56
2021/04/07 07:47:39;;;;;;;6.83;5.93;;;2.10;99.90;;;;;;5061899;28;21037;-59
2021/04/07 07:50:07;;;;;;;5.87;4.87;;;2.30;99.90;;;;;;5064521;28;20469;-46
2021/04/07 07:52:35;;;;;;;10.13;5.27;;;2.50;99.90;;;;;;5061216;28;20473;-53
2021/04/07 07:55:16;;;;;;;7.53;5.17;;;2.30;99.90;;;;;;5062429;28;20779;-51
2021/04/07 07:57:55;;;;;;;6.00;4.93;;;2.20;99.90;;;;;;5071576;28;20625;-52
2021/04/07 08:00:23;;;;;;;4.83;4.20;;;2.30;99.90;;;;;;5072950;28;20884;-59
2021/04/07 08:02:49;;;;;;;5.13;4.27;;;2.50;99.90;;;;;;5059028;28;20525;-44
2021/04/07 08:05:16;;;;;;;7.33;4.60;;;2.70;99.90;;;;;;5054566;28;20425;-44
2021/04/07 08:07:42;;;;;;;5.67;4.90;;;2.90;99.90;;;;;;5052776;28;20236;-46
2021/04/07 08:10:09;;;;;;;5.73;4.73;;;3.00;99.90;;;;;;5052928;28;20567;-47
2021/04/07 08:12:35;;;;;;;5.63;4.83;;;3.00;99.90;;;;;;5053319;28;20210;-42
2021/04/07 08:15:01;;;;;;;5.67;4.53;;;2.70;99.90;;;;;;5055168;28;20179;-48
2021/04/07 08:17:29;;;;;;;9.73;5.00;;;2.50;99.90;;;;;;5060967;28;20429;-42
2021/04/07 08:19:56;;;;;;;6.13;4.60;;;2.20;99.90;;;;;;5053157;28;20712;-43
2021/04/07 08:22:23;;;;;;;7.93;4.80;;;2.10;99.90;;;;;;5053520;28;20802;-43
2021/04/07 08:24:51;;;;;;;7.27;4.70;;;2.30;99.90;;;;;;5053395;28;20461;-43
2021/04/07 08:27:20;;;;;;;5.80;4.27;;;2.50;99.90;;;;;;5064887;28;20433;-48
2021/04/07 08:29:46;;;;;;;6.27;4.77;;;2.70;99.90;;;;;;5053823;28;20179;-43
2021/04/07 08:32:11;;;;;;;5.33;4.77;;;2.90;99.90;;;;;;5053621;28;20233;-44
2021/04/07 08:34:44;;;;;;;7.63;4.57;;;3.20;99.90;;;;;;5071495;28;20239;-44
2021/04/07 08:37:12;;;;;;;5.53;4.50;;;3.50;99.90;;;;;;5072046;28;20222;-45
2021/04/07 08:39:44;;;;;;;8.03;4.90;;;3.40;99.90;;;;;;5073312;28;20197;-44
2021/04/07 08:42:11;;;;;;;6.97;5.00;;;3.10;99.90;;;;;;5064083;28;20229;-43
2021/04/07 08:44:47;;;;;;;4.80;4.30;;;3.30;99.90;;;;;;5054232;28;20291;-49
2021/04/07 08:47:43;;;;;;;4.50;3.77;;;3.70;99.90;;;;;;5068294;28;20194;-43
2021/04/07 08:50:10;;;;;;;6.33;4.70;;;3.60;99.90;;;;;;5062920;28;20522;-43
2021/04/07 08:52:47;;;;;;;5.67;4.47;;;3.40;99.90;;;;;;5060812;28;20201;-48
2021/04/07 08:55:17;;;;;;;5.63;4.20;;;3.50;99.90;;;;;;5076686;28;20200;-51
2021/04/07 08:57:43;;;;;;;4.60;4.10;;;3.80;99.90;;;;;;5076901;28;20253;-47
2021/04/07 09:00:14;;;;;;;6.53;4.33;;;4.10;99.90;;;;;;5075629;28;20206;-52
2021/04/07 09:02:48;;;;;;;5.57;4.57;;;4.20;99.90;;;;;;5065188;28;20193;-46
2021/04/07 09:05:14;;;;;;;4.97;4.10;;;4.30;99.90;;;;;;5065351;28;20179;-50
2021/04/07 09:07:46;;;;;;;5.10;4.37;;;4.20;99.90;;;;;;5061102;28;20606;-46
2021/04/07 09:10:15;;;;;;;6.53;4.70;;;4.30;99.90;;;;;;5055241;28;20179;-50
2021/04/07 09:12:42;;;;;;;5.90;4.67;;;4.30;99.90;;;;;;5063082;28;20233;-53
2021/04/07 09:15:19;;;;;;;6.70;4.80;;;4.30;99.90;;;;;;5061778;28;20209;-49
2021/04/07 09:17:54;;;;;;;5.23;4.37;;;3.90;99.90;;;;;;5063426;28;20522;-45
2021/04/07 09:20:34;;;;;;;5.27;4.43;;;3.60;99.90;;;;;;5065645;28;20639;-44
2021/04/07 09:23:17;;;;;;;4.30;3.90;;;3.60;99.90;;;;;;5055750;28;20673;-46
2021/04/07 09:25:57;;;;;;;4.73;4.20;;;3.90;99.90;;;;;;5057523;28;20357;-52
2021/04/07 09:28:34;;;;;;;5.27;4.30;;;4.10;99.90;;;;;;5061499;28;20175;-53
2021/04/07 09:31:16;;;;;;;5.30;3.90;;;4.20;99.90;;;;;;5056459;28;20266;-48
2021/04/07 09:33:48;;;;;;;4.87;4.13;;;4.20;99.90;;;;;;5058344;28;20254;-50
2021/04/07 09:36:15;;;;;;;5.80;4.30;;;4.10;99.90;;;;;;5073514;28;20222;-48
2021/04/07 09:38:51;;;;;;;5.00;4.10;;;4.10;99.90;;;;;;5075160;28;20277;-48
2021/04/07 09:41:23;;;;;;;5.70;4.07;;;3.90;99.90;;;;;;5057262;28;20198;-55
2021/04/07 09:43:49;;;;;;;4.70;4.20;;;3.80;99.90;;;;;;5067413;28;20190;-47
2021/04/07 09:46:15;;;;;;;5.73;3.70;;;3.90;99.90;;;;;;5074303;28;20203;-48
2021/04/07 09:48:55;;;;;;;4.80;3.73;;;4.20;99.90;;;;;;5075065;28;20170;-52
2021/04/07 09:51:27;;;;;;;6.20;3.57;;;4.20;99.90;;;;;;5075019;28;20303;-46
2021/04/07 09:54:05;;;;;;;6.30;3.77;;;4.10;99.90;;;;;;5075429;28;20167;-51
2021/04/07 09:56:31;;;;;;;5.10;3.63;;;4.20;99.90;;;;;;5075018;28;20646;-49
2021/04/07 09:58:57;;;;;;;4.87;3.40;;;4.30;99.90;;;;;;5076541;28;20270;-51
2021/04/07 10:01:24;;;;;;;5.17;3.50;;;4.60;99.90;;;;;;5075689;28;20185;-47
2021/04/07 10:03:54;;;;;;;5.87;3.97;;;4.70;99.90;;;;;;5075893;28;20210;-50
2021/04/07 10:06:22;;;;;;;4.77;3.67;;;4.50;99.90;;;;;;5075673;28;20222;-46
2021/04/07 10:08:57;;;;;;;4.53;3.33;;;4.20;99.90;;;;;;5075535;28;20182;-46
2021/04/07 10:11:22;;;;;;;7.90;5.13;;;3.90;99.90;;;;;;5075457;28;20170;-45
2021/04/07 10:13:49;;;;;;;13.43;8.97;;;3.90;99.90;;;;;;5075106;28;20194;-51
2021/04/07 10:16:15;;;;;;;39.30;21.93;;;4.10;99.90;;;;;;5075820;28;20209;-49
2021/04/07 10:18:44;;;;;;;22.03;12.43;;;4.40;99.90;;;;;;5075158;28;20186;-56
2021/04/07 10:21:14;;;;;;;10.73;7.80;;;4.50;99.90;;;;;;5075373;28;20178;-55
2021/04/07 10:23:40;;;;;;;5.00;3.50;;;4.40;99.90;;;;;;5074671;28;20732;-45
2021/04/07 10:26:06;;;;;;;5.10;3.97;;;4.30;99.90;;;;;;5075218;28;20198;-46
2021/04/07 10:28:32;;;;;;;4.03;2.87;;;4.40;99.90;;;;;;5064691;28;20187;-46
2021/04/07 10:30:57;;;;;;;3.63;3.30;;;4.60;99.90;;;;;;5054930;28;20179;-51
2021/04/07 10:33:26;;;;;;;4.63;3.33;;;4.50;99.90;;;;;;5055797;28;20185;-54
2021/04/07 10:35:59;;;;;;;4.00;3.00;;;4.40;99.90;;;;;;5054716;28;20202;-51
2021/04/07 10:38:29;;;;;;;3.77;3.10;;;4.30;99.90;;;;;;5054735;28;20179;-46
2021/04/07 10:41:04;;;;;;;5.03;3.50;;;4.30;99.90;;;;;;5072111;28;20236;-45
2021/04/07 10:43:32;;;;;;;4.77;3.03;;;4.50;99.90;;;;;;5075588;28;20205;-45
2021/04/07 10:46:00;;;;;;;6.97;3.00;;;4.80;99.90;;;;;;5074057;28;20232;-49
2021/04/07 10:48:26;;;;;;;5.70;2.90;;;4.80;99.90;;;;;;5073408;28;20189;-45
2021/04/07 10:50:52;;;;;;;4.33;3.00;;;5.20;99.90;;;;;;5075820;28;20523;-47
2021/04/07 10:53:33;;;;;;;4.33;2.90;;;5.30;99.90;;;;;;5073607;28;20174;-46
2021/04/07 10:56:00;;;;;;;3.50;2.70;;;5.10;99.90;;;;;;5074642;28;20205;-52
2021/04/07 10:58:29;;;;;;;4.03;3.00;;;5.30;99.90;;;;;;5074514;28;20174;-53
2021/04/07 11:00:55;;;;;;;4.93;3.20;;;5.50;99.90;;;;;;5074242;28;20642;-46
2021/04/07 11:03:33;;;;;;;5.07;3.20;;;5.60;99.90;;;;;;5075075;28;20202;-51
2021/04/07 11:06:00;;;;;;;3.07;2.70;;;5.80;99.90;;;;;;5074680;28;20198;-52
2021/04/07 11:08:39;;;;;;;3.07;2.73;;;6.10;99.90;;;;;;5074602;28;20170;-48
2021/04/07 11:11:05;;;;;;;3.77;2.20;;;6.30;98.70;;;;;;5073939;28;20185;-58
2021/04/07 11:13:32;;;;;;;2.40;2.20;;;6.60;99.20;;;;;;5074047;28;20179;-48
2021/04/07 11:16:11;;;;;;;4.73;2.60;;;6.90;96.00;;;;;;5074854;28;20201;-51
2021/04/07 11:18:39;;;;;;;2.27;2.07;;;6.80;97.00;;;;;;5074322;28;20167;-47
2021/04/07 11:21:05;;;;;;;2.10;1.90;;;6.90;95.80;;;;;;5065387;28;20174;-46
2021/04/07 11:23:31;;;;;;;1.80;1.70;;;7.30;96.30;;;;;;5054267;28;20736;-50
2021/04/07 11:25:57;;;;;;;2.87;2.07;;;7.30;93.10;;;;;;5054911;28;20187;-48
2021/04/07 11:28:22;;;;;;;1.33;1.23;;;7.20;92.90;;;;;;5063297;28;20253;-50
2021/04/07 11:33:35;;;;;;;1.50;1.40;;;6.80;91.20;;;;;;5074262;28;20153;-53
2021/04/07 11:36:14;;;;;;;1.80;1.67;;;7.80;92.20;;;;;;5073791;28;20241;-46
2021/04/07 11:38:44;;;;;;;3.40;1.80;;;8.80;90.10;;;;;;5074755;28;20185;-54
2021/04/07 11:44:25;;;;;;;3.07;2.30;;;9.30;89.10;;;;;;5075010;28;20650;-55
2021/04/07 11:46:24;;;;;;;4.47;2.40;;;9.50;90.00;;;;;;5073179;28;20210;-54
2021/04/07 11:48:49;;;;;;;3.13;2.30;;;10.00;85.00;;;;;;5072790;28;20181;-47
2021/04/07 11:51:15;;;;;;;3.17;2.03;;;10.20;86.30;;;;;;5074018;28;20625;-53
2021/04/07 11:53:41;;;;;;;2.20;1.83;;;10.30;83.00;;;;;;5074532;28;20186;-53
2021/04/07 11:56:07;;;;;;;3.47;2.10;;;9.90;83.70;;;;;;5062052;28;20286;-47
2021/04/07 11:58:32;;;;;;;2.40;1.67;;;9.90;83.70;;;;;;5053580;28;20187;-47
2021/04/07 12:00:58;;;;;;;4.50;2.30;;;10.60;84.10;;;;;;5054641;28;20236;-49
2021/04/07 12:03:23;;;;;;;4.03;2.30;;;10.70;80.90;;;;;;5057185;28;20206;-52
2021/04/07 12:05:49;;;;;;;2.20;1.70;;;10.30;85.30;;;;;;5073832;28;20631;-55
2021/04/07 12:08:14;;;;;;;2.50;1.30;;;9.90;77.10;;;;;;5074310;28;20634;-53
2021/04/07 12:10:40;;;;;;;1.70;1.27;;;9.80;78.10;;;;;;5073820;28;20175;-47
2021/04/07 12:13:06;;;;;;;1.77;1.50;;;9.80;78.90;;;;;;5065133;28;20183;-46
2021/04/07 12:15:31;;;;;;;1.90;1.63;;;8.80;77.20;;;;;;5053788;28;20270;-47
2021/04/07 12:17:57;;;;;;;2.90;1.87;;;7.80;77.50;;;;;;5055224;28;20167;-49
2021/04/07 12:20:24;;;;;;;2.70;1.80;;;7.40;85.10;;;;;;5054167;28;20232;-47
2021/04/07 12:22:52;;;;;;;4.00;1.77;;;7.30;86.00;;;;;;5057999;28;20171;-47
2021/04/07 12:25:18;;;;;;;2.40;1.60;;;8.10;86.80;;;;;;5057745;28;20281;-47
2021/04/07 12:27:43;;;;;;;2.67;1.60;;;8.90;79.30;;;;;;5058356;28;20182;-47
2021/04/07 12:30:10;;;;;;;2.87;1.87;;;9.50;79.60;;;;;;5057626;28;20290;-55
2021/04/07 12:32:35;;;;;;;3.07;1.83;;;9.80;83.90;;;;;;5057647;28;20182;-47
2021/04/07 12:35:01;;;;;;;3.03;2.00;;;9.90;78.70;;;;;;5058507;28;20176;-52
2021/04/07 12:37:29;;;;;;;2.40;2.00;;;9.70;78.20;;;;;;5057243;28;20194;-53
2021/04/07 12:39:54;;;;;;;4.47;1.83;;;9.30;79.10;;;;;;5057301;28;20167;-52
2021/04/07 12:42:26;;;;;;;2.70;2.10;;;9.00;82.70;;;;;;5057264;28;20259;-47
2021/04/07 12:44:52;;;;;;;2.43;2.23;;;8.60;83.20;;;;;;5057409;28;20289;-52
2021/04/07 12:47:17;;;;;;;2.50;2.17;;;8.60;85.00;;;;;;5057366;28;20211;-47
2021/04/07 12:49:43;;;;;;;3.70;2.20;;;8.70;84.60;;;;;;5057477;28;20555;-52
2021/04/07 12:52:09;;;;;;;2.90;2.07;;;8.50;84.70;;;;;;5057127;28;20182;-57
2021/04/07 12:54:35;;;;;;;2.93;2.23;;;8.20;82.80;;;;;;5057448;28;20676;-48
2021/04/07 12:57:03;;;;;;;3.13;1.90;;;8.10;84.30;;;;;;5057026;28;20191;-47
2021/04/07 12:59:29;;;;;;;2.47;1.90;;;8.10;83.40;;;;;;5056860;28;20573;-52
2021/04/07 13:01:55;;;;;;;2.70;1.70;;;7.60;85.20;;;;;;5056959;28;20645;-51